Time;durP1;ratioP1;P1;durP2;ratioP2;P2;SDS_P1;SDS_P2;PMS_P1;PMS_P2;Temp;Humidity;BMP_temperature;BMP_pressure;BME280_temperature;BME280_humidity;BME280_pressure;Samples;Min_cycle;Max_cycle;Signal;HPM_P1;HPM_P2
2021/10/01 00:00:07;;;;;;;9.23;3.73;;;7.90;99.90;;;;;;5053948;28;20406;-59
2021/10/01 00:02:34;;;;;;;4.40;3.53;;;7.80;99.90;;;;;;5054169;28;20574;-59
2021/10/01 00:05:00;;;;;;;4.00;3.20;;;7.80;99.90;;;;;;5053835;28;20398;-58
2021/10/01 00:07:27;;;;;;;5.00;3.30;;;7.80;99.90;;;;;;5053713;28;20914;-58
2021/10/01 00:09:53;;;;;;;5.90;3.50;;;7.80;99.90;;;;;;5053732;28;20433;-59
2021/10/01 00:12:18;;;;;;;4.73;3.70;;;7.80;99.90;;;;;;5053566;28;20402;-58
2021/10/01 00:14:44;;;;;;;3.87;3.47;;;7.80;99.90;;;;;;5052292;28;20405;-59
2021/10/01 00:17:10;;;;;;;5.10;3.37;;;7.70;99.90;;;;;;5053501;28;20187;-57
2021/10/01 00:19:36;;;;;;;3.87;3.47;;;7.70;99.90;;;;;;5053442;28;20466;-59
2021/10/01 00:22:03;;;;;;;6.07;4.20;;;7.70;99.90;;;;;;5052960;28;20163;-59
2021/10/01 00:24:30;;;;;;;4.53;4.13;;;7.70;99.90;;;;;;5053662;28;20822;-58
2021/10/01 00:26:56;;;;;;;5.30;4.23;;;7.70;99.90;;;;;;5053386;28;20507;-58
2021/10/01 00:29:22;;;;;;;5.77;4.20;;;7.70;99.90;;;;;;5053380;28;20461;-58
2021/10/01 00:31:48;;;;;;;5.00;3.60;;;7.70;99.90;;;;;;5052002;28;20441;-58
2021/10/01 00:34:14;;;;;;;7.03;3.67;;;7.70;99.90;;;;;;5053360;28;20472;-58
2021/10/01 00:36:40;;;;;;;6.27;3.80;;;7.70;99.90;;;;;;5053530;28;20448;-59
2021/10/01 00:39:06;;;;;;;4.00;3.40;;;7.70;99.90;;;;;;5052424;28;20163;-59
2021/10/01 00:41:33;;;;;;;6.13;4.07;;;7.70;99.90;;;;;;5053328;28;20632;-59
2021/10/01 00:43:59;;;;;;;6.97;3.60;;;7.70;99.90;;;;;;5053295;28;20769;-58
2021/10/01 00:46:25;;;;;;;7.67;3.70;;;7.60;99.90;;;;;;5053315;28;20499;-58
2021/10/01 00:48:51;;;;;;;4.33;3.77;;;7.60;99.90;;;;;;5053161;28;20401;-57
2021/10/01 00:51:18;;;;;;;5.00;4.37;;;7.50;99.90;;;;;;5052989;28;20416;-59
2021/10/01 00:53:44;;;;;;;11.77;4.43;;;7.50;99.90;;;;;;5052997;28;20198;-59
2021/10/01 00:56:11;;;;;;;6.70;3.87;;;7.50;99.90;;;;;;5052963;28;20862;-59
2021/10/01 00:58:37;;;;;;;3.70;3.30;;;7.50;99.90;;;;;;5053071;28;20437;-59
2021/10/01 01:01:12;;;;;;;5.23;3.50;;;7.50;99.90;;;;;;5052955;28;20429;-59
2021/10/01 01:03:48;;;;;;;4.33;3.57;;;7.40;99.90;;;;;;5053264;28;20798;-58
2021/10/01 01:06:28;;;;;;;5.37;4.37;;;7.40;99.90;;;;;;5053135;28;20440;-58
2021/10/01 01:09:06;;;;;;;6.17;3.83;;;7.40;99.90;;;;;;5047957;28;20987;-58
2021/10/01 01:11:58;;;;;;;5.03;3.00;;;7.40;99.90;;;;;;5053023;28;20906;-59
2021/10/01 01:14:33;;;;;;;5.40;3.90;;;7.30;99.90;;;;;;5052538;28;20480;-59
2021/10/01 01:17:01;;;;;;;6.30;4.13;;;7.30;99.90;;;;;;5052624;28;20428;-59
2021/10/01 01:20:05;;;;;;;5.93;3.97;;;7.30;99.90;;;;;;5052949;28;20405;-59
2021/10/01 01:22:42;;;;;;;6.27;4.30;;;7.20;99.90;;;;;;5051849;28;20421;-60
2021/10/01 01:25:46;;;;;;;6.60;3.90;;;7.20;99.90;;;;;;5052639;28;20417;-60
2021/10/01 01:28:31;;;;;;;8.73;3.43;;;7.20;99.90;;;;;;5053045;28;20757;-60
2021/10/01 01:31:07;;;;;;;7.70;4.93;;;7.20;99.90;;;;;;5051476;28;20830;-59
2021/10/01 01:33:36;;;;;;;8.07;3.37;;;7.20;99.90;;;;;;5052775;28;21056;-60
2021/10/01 01:36:02;;;;;;;3.90;2.80;;;7.20;99.90;;;;;;5056346;28;20763;-59
2021/10/01 01:38:38;;;;;;;3.80;3.23;;;7.20;99.90;;;;;;5056678;28;20948;-60
2021/10/01 01:41:06;;;;;;;6.07;3.97;;;7.10;99.90;;;;;;5056935;28;20419;-60
2021/10/01 01:43:33;;;;;;;4.70;3.80;;;7.10;99.90;;;;;;5056495;28;20402;-59
2021/10/01 01:46:01;;;;;;;5.90;3.50;;;7.10;99.90;;;;;;5056344;28;20421;-59
2021/10/01 01:48:27;;;;;;;5.20;3.40;;;7.00;99.90;;;;;;5056533;28;20769;-60
2021/10/01 01:50:55;;;;;;;6.27;3.83;;;7.00;99.90;;;;;;5056348;28;20520;-60
2021/10/01 01:53:23;;;;;;;3.83;3.20;;;6.90;99.90;;;;;;5056306;28;20515;-60
2021/10/01 01:55:50;;;;;;;4.80;3.20;;;6.90;99.90;;;;;;5056233;28;20428;-60
2021/10/01 01:58:17;;;;;;;4.70;3.70;;;6.80;99.90;;;;;;5056234;28;20496;-59
2021/10/01 02:00:45;;;;;;;4.70;3.60;;;6.80;99.90;;;;;;5056259;28;20397;-59
2021/10/01 02:03:12;;;;;;;8.73;3.40;;;6.90;99.90;;;;;;5056095;28;20409;-60
2021/10/01 02:05:39;;;;;;;5.53;3.57;;;6.90;99.90;;;;;;5056078;28;20886;-60
2021/10/01 02:08:07;;;;;;;4.50;3.27;;;6.90;99.90;;;;;;5056092;28;20416;-58
2021/10/01 02:10:35;;;;;;;5.27;3.70;;;6.90;99.90;;;;;;5056419;28;20828;-59
2021/10/01 02:13:03;;;;;;;8.47;3.37;;;6.90;99.90;;;;;;5055720;28;20505;-58
2021/10/01 02:15:31;;;;;;;3.70;3.13;;;6.90;99.90;;;;;;5056113;28;20758;-59
2021/10/01 02:18:00;;;;;;;5.17;3.50;;;6.80;99.90;;;;;;5055023;28;20426;-60
2021/10/01 02:20:27;;;;;;;3.53;2.80;;;6.90;99.90;;;;;;5055812;28;20401;-60
2021/10/01 02:22:53;;;;;;;4.40;2.47;;;6.80;99.90;;;;;;5055802;28;20464;-59
2021/10/01 02:28:08;;;;;;;4.53;2.97;;;6.90;99.90;;;;;;5056051;28;20393;-58
2021/10/01 02:30:37;;;;;;;5.90;4.10;;;6.90;99.90;;;;;;5055956;28;20437;-60
2021/10/01 02:33:11;;;;;;;3.03;2.70;;;6.80;99.90;;;;;;5055527;28;20442;-60
2021/10/01 02:35:37;;;;;;;5.13;3.33;;;6.90;99.90;;;;;;5055947;28;20811;-60
2021/10/01 02:38:03;;;;;;;5.10;3.33;;;6.90;99.90;;;;;;5054351;28;20444;-60
2021/10/01 02:40:29;;;;;;;5.40;4.40;;;6.90;99.90;;;;;;5051982;28;20182;-60
2021/10/01 02:42:54;;;;;;;4.17;3.30;;;6.80;99.90;;;;;;5034246;28;20210;-60
2021/10/01 02:45:20;;;;;;;4.23;2.93;;;6.80;99.90;;;;;;5044898;28;20707;-60
2021/10/01 02:47:46;;;;;;;4.27;3.10;;;6.80;99.90;;;;;;5055142;28;20187;-59
2021/10/01 02:50:21;;;;;;;4.90;3.33;;;6.90;99.90;;;;;;5055120;28;20502;-60
2021/10/01 02:52:53;;;;;;;4.20;2.80;;;6.80;99.90;;;;;;5055243;28;20302;-58
2021/10/01 02:55:29;;;;;;;4.27;3.00;;;6.90;99.90;;;;;;5055363;28;20405;-59
2021/10/01 02:58:16;;;;;;;4.50;3.20;;;6.90;99.90;;;;;;5055484;28;20829;-57
2021/10/01 03:00:43;;;;;;;3.33;2.87;;;6.90;99.90;;;;;;5055148;28;20396;-58
2021/10/01 03:03:19;;;;;;;3.20;2.80;;;6.90;99.90;;;;;;5055273;28;20434;-57
2021/10/01 03:05:45;;;;;;;6.37;3.60;;;6.80;99.90;;;;;;5055094;28;20417;-58
2021/10/01 03:08:14;;;;;;;3.20;2.90;;;6.90;99.90;;;;;;5054939;28;20464;-59
2021/10/01 03:10:41;;;;;;;4.40;2.70;;;6.90;99.90;;;;;;5054848;28;20455;-59
2021/10/01 03:13:08;;;;;;;4.10;3.47;;;6.80;99.90;;;;;;5054605;28;20458;-59
2021/10/01 03:15:35;;;;;;;3.20;2.90;;;6.80;99.90;;;;;;5054679;28;20426;-59
2021/10/01 03:18:01;;;;;;;5.00;2.80;;;6.80;99.90;;;;;;5055115;28;20409;-59
2021/10/01 03:20:27;;;;;;;3.90;2.97;;;6.90;99.90;;;;;;5054945;28;20409;-60
2021/10/01 03:22:54;;;;;;;3.43;2.73;;;6.90;99.90;;;;;;5054676;28;20412;-59
2021/10/01 03:25:21;;;;;;;3.63;2.73;;;6.80;99.90;;;;;;5049190;28;20925;-60
2021/10/01 03:27:47;;;;;;;3.67;3.20;;;6.80;99.90;;;;;;5034389;28;20442;-59
2021/10/01 03:30:13;;;;;;;5.10;2.90;;;6.80;99.90;;;;;;5035428;28;20402;-59
2021/10/01 03:32:39;;;;;;;6.80;3.00;;;6.70;99.90;;;;;;5054096;28;20197;-59
2021/10/01 03:35:08;;;;;;;5.73;3.00;;;6.70;99.90;;;;;;5054500;28;20494;-59
2021/10/01 03:37:34;;;;;;;3.27;2.80;;;6.60;99.90;;;;;;5054307;28;20740;-58
2021/10/01 03:40:12;;;;;;;8.83;2.90;;;6.60;99.90;;;;;;5054646;28;20485;-59
2021/10/01 03:42:39;;;;;;;5.83;2.60;;;6.60;99.90;;;;;;5054345;28;20436;-58
2021/10/01 03:45:08;;;;;;;3.10;2.43;;;6.50;99.90;;;;;;5054195;28;20993;-58
2021/10/01 03:47:34;;;;;;;4.10;2.70;;;6.50;99.90;;;;;;5054147;28;20471;-59
2021/10/01 03:50:00;;;;;;;3.20;2.57;;;6.40;99.90;;;;;;5054462;28;20797;-59
2021/10/01 03:52:26;;;;;;;4.10;2.50;;;6.40;99.90;;;;;;5054553;28;20903;-57
2021/10/01 03:54:53;;;;;;;4.13;2.90;;;6.40;99.90;;;;;;5054039;28;20405;-57
2021/10/01 03:57:19;;;;;;;5.00;3.10;;;6.40;99.90;;;;;;5053362;28;20422;-57
2021/10/01 03:59:45;;;;;;;7.50;2.43;;;6.40;99.90;;;;;;5053888;28;20398;-58
2021/10/01 04:02:11;;;;;;;4.90;3.57;;;6.40;99.90;;;;;;5053977;28;20466;-59
2021/10/01 04:04:37;;;;;;;4.20;3.23;;;6.30;99.90;;;;;;5053975;28;20405;-57
2021/10/01 04:07:03;;;;;;;3.20;2.77;;;6.30;99.90;;;;;;5053813;28;20187;-58
2021/10/01 04:09:29;;;;;;;3.67;2.63;;;6.30;99.90;;;;;;5053981;28;20220;-59
2021/10/01 04:11:56;;;;;;;6.00;3.37;;;6.30;99.90;;;;;;5053893;28;20417;-53
2021/10/01 04:14:23;;;;;;;7.70;4.00;;;6.30;99.90;;;;;;5052318;28;20482;-59
2021/10/01 04:16:49;;;;;;;8.10;4.23;;;6.30;99.90;;;;;;5053628;28;20409;-58
2021/10/01 04:19:16;;;;;;;6.20;4.10;;;6.30;99.90;;;;;;5053583;28;20954;-60
2021/10/01 04:21:42;;;;;;;5.43;3.47;;;6.30;99.90;;;;;;5053521;28;20492;-56
2021/10/01 04:24:08;;;;;;;5.80;2.93;;;6.20;99.90;;;;;;5053516;28;20409;-59
2021/10/01 04:26:33;;;;;;;4.90;2.73;;;6.20;99.90;;;;;;5053507;28;20425;-57
2021/10/01 04:28:59;;;;;;;4.17;3.20;;;6.30;99.90;;;;;;5052371;28;20194;-59
2021/10/01 04:31:25;;;;;;;4.80;2.80;;;6.20;99.90;;;;;;5053806;28;20658;-59
2021/10/01 04:33:50;;;;;;;4.70;3.07;;;6.30;99.90;;;;;;5053768;28;20203;-60
2021/10/01 04:36:18;;;;;;;11.23;3.80;;;6.30;99.90;;;;;;5053899;28;20644;-60
2021/10/01 04:38:44;;;;;;;5.47;3.60;;;6.30;99.90;;;;;;5053556;28;20232;-59
2021/10/01 04:41:10;;;;;;;8.47;3.90;;;6.30;99.90;;;;;;5053473;28;20769;-60
2021/10/01 04:43:36;;;;;;;5.80;3.60;;;6.30;99.90;;;;;;5053358;28;20404;-60
2021/10/01 04:46:04;;;;;;;9.23;4.10;;;6.20;99.90;;;;;;5053027;28;20425;-59
2021/10/01 04:48:30;;;;;;;8.80;4.50;;;6.20;99.90;;;;;;5053205;28;20406;-60
2021/10/01 04:50:55;;;;;;;7.10;4.40;;;6.20;99.90;;;;;;5053430;28;20402;-59
2021/10/01 04:53:21;;;;;;;8.83;4.33;;;6.20;99.90;;;;;;5053156;28;20199;-58
2021/10/01 04:55:47;;;;;;;8.87;4.43;;;6.20;99.90;;;;;;5053098;28;20159;-58
2021/10/01 04:58:13;;;;;;;6.43;4.37;;;6.20;99.90;;;;;;5053357;28;20637;-59
2021/10/01 05:00:39;;;;;;;8.00;4.13;;;6.20;99.90;;;;;;5053161;28;20566;-59
2021/10/01 05:03:05;;;;;;;4.80;3.23;;;6.20;99.90;;;;;;5053173;28;20409;-58
2021/10/01 05:05:31;;;;;;;5.30;3.33;;;6.20;99.90;;;;;;5053134;28;20560;-58
2021/10/01 05:07:56;;;;;;;7.27;3.73;;;6.20;99.90;;;;;;5052508;28;20848;-59
2021/10/01 05:10:22;;;;;;;8.07;4.70;;;6.20;99.90;;;;;;5052903;28;20515;-58
2021/10/01 05:12:48;;;;;;;8.87;3.53;;;6.10;99.90;;;;;;5052666;28;20457;-60
2021/10/01 05:15:15;;;;;;;7.27;3.20;;;6.10;99.90;;;;;;5052951;28;20530;-60
2021/10/01 05:17:41;;;;;;;8.67;4.07;;;6.10;99.90;;;;;;5052761;28;20555;-59
2021/10/01 05:20:11;;;;;;;5.50;3.60;;;6.10;99.90;;;;;;5052776;28;20406;-60
2021/10/01 05:22:37;;;;;;;5.03;3.93;;;6.10;99.90;;;;;;5052749;28;20411;-59
2021/10/01 05:25:04;;;;;;;5.53;3.80;;;6.10;99.90;;;;;;5053693;28;20468;-60
2021/10/01 05:27:30;;;;;;;8.20;4.23;;;6.10;99.90;;;;;;5052780;28;20467;-59
2021/10/01 05:29:56;;;;;;;8.30;4.80;;;6.20;99.90;;;;;;5052837;28;20402;-59
2021/10/01 05:32:22;;;;;;;14.00;4.83;;;6.20;99.90;;;;;;5053228;28;20398;-58
2021/10/01 05:34:48;;;;;;;8.30;4.53;;;6.30;99.90;;;;;;5053091;28;20560;-59
2021/10/01 05:37:14;;;;;;;6.27;4.47;;;6.30;99.90;;;;;;5052889;28;20198;-59
2021/10/01 05:39:40;;;;;;;9.90;4.67;;;6.30;99.90;;;;;;5051850;28;20398;-59
2021/10/01 05:42:06;;;;;;;6.00;3.80;;;6.40;99.90;;;;;;5052733;28;20489;-58
2021/10/01 05:44:32;;;;;;;12.00;3.90;;;6.40;99.90;;;;;;5051835;28;20496;-59
2021/10/01 05:47:01;;;;;;;5.10;3.63;;;6.40;99.90;;;;;;5051315;28;20437;-58
2021/10/01 05:49:36;;;;;;;5.77;4.20;;;6.50;99.90;;;;;;5052777;28;20178;-58
2021/10/01 05:54:50;;;;;;;9.23;5.27;;;6.50;99.90;;;;;;5052836;28;20503;-60
2021/10/01 05:57:16;;;;;;;6.30;4.07;;;6.60;99.90;;;;;;5052580;28;20935;-59
2021/10/01 05:59:46;;;;;;;8.77;4.53;;;6.60;99.90;;;;;;5052879;28;20497;-59
2021/10/01 06:02:16;;;;;;;15.40;4.77;;;6.70;99.90;;;;;;5052905;28;20396;-59
2021/10/01 06:04:42;;;;;;;7.40;4.47;;;6.80;99.90;;;;;;5052546;28;20402;-58
2021/10/01 06:07:09;;;;;;;11.43;4.60;;;6.80;99.90;;;;;;5052469;28;20424;-59
2021/10/01 06:09:35;;;;;;;6.57;3.83;;;6.90;99.90;;;;;;5052390;28;20437;-58
2021/10/01 06:12:01;;;;;;;9.70;5.13;;;6.90;99.90;;;;;;5052307;28;20409;-60
2021/10/01 06:14:27;;;;;;;5.93;3.57;;;7.00;99.90;;;;;;5052464;28;20540;-60
2021/10/01 06:16:53;;;;;;;5.33;2.80;;;7.00;99.90;;;;;;5052322;28;20571;-60
2021/10/01 06:19:20;;;;;;;4.73;2.60;;;7.10;99.90;;;;;;5052428;28;20181;-60
2021/10/01 06:21:47;;;;;;;7.37;3.50;;;7.10;99.90;;;;;;5055321;28;20398;-60
2021/10/01 06:24:12;;;;;;;8.60;4.40;;;7.20;99.90;;;;;;5056232;28;20875;-57
2021/10/01 06:26:38;;;;;;;4.83;3.30;;;7.30;99.90;;;;;;5055804;28;20425;-60
2021/10/01 06:29:04;;;;;;;8.60;4.23;;;7.30;99.90;;;;;;5056126;28;20258;-59
2021/10/01 06:31:30;;;;;;;17.40;4.80;;;7.40;99.90;;;;;;5055793;28;20836;-60
2021/10/01 06:33:56;;;;;;;9.97;5.37;;;7.50;99.90;;;;;;5055528;28;20449;-59
2021/10/01 06:36:23;;;;;;;11.07;4.70;;;7.60;99.90;;;;;;5055938;28;20413;-60
2021/10/01 06:38:50;;;;;;;12.57;7.30;;;7.70;99.90;;;;;;5055785;28;20187;-59
2021/10/01 06:41:16;;;;;;;9.27;5.40;;;7.80;99.90;;;;;;5055598;28;20398;-60
2021/10/01 06:43:44;;;;;;;10.77;5.37;;;7.90;99.90;;;;;;5055513;28;20404;-56
2021/10/01 06:46:55;;;;;;;8.50;4.57;;;8.00;99.90;;;;;;5054380;28;20191;-58
2021/10/01 07:29:20;;;;;;;3.40;2.80;;;9.50;99.90;;;;;;5041714;28;20414;-58
2021/10/01 07:35:37;;;;;;;3.50;2.20;;;9.80;99.90;;;;;;5043320;28;20493;-58
2021/10/01 08:21:14;;;;;;;7.73;2.53;;;12.20;99.90;;;;;;5038633;28;20948;-53
2021/10/01 08:23:42;;;;;;;5.70;2.60;;;12.30;99.90;;;;;;5042901;28;20417;-52
2021/10/01 08:26:08;;;;;;;8.83;3.33;;;12.30;99.90;;;;;;5047942;28;20551;-54
2021/10/01 08:28:34;;;;;;;7.50;2.50;;;12.40;99.90;;;;;;5041162;28;20426;-54
2021/10/01 08:30:59;;;;;;;6.53;1.77;;;12.50;99.90;;;;;;5044292;28;20420;-54
2021/10/01 08:33:25;;;;;;;4.20;2.70;;;12.70;99.90;;;;;;5044841;28;20457;-53
2021/10/01 08:35:51;;;;;;;6.70;2.43;;;12.70;99.90;;;;;;5050714;28;20180;-52
2021/10/01 08:38:17;;;;;;;6.13;2.50;;;12.70;99.90;;;;;;5040092;28;20180;-61
2021/10/01 08:40:43;;;;;;;4.63;2.20;;;12.80;99.90;;;;;;5055224;28;20432;-58
2021/10/01 08:43:09;;;;;;;7.57;2.50;;;13.00;99.90;;;;;;5051030;28;20833;-57
2021/10/01 08:45:35;;;;;;;6.03;1.83;;;13.10;99.90;;;;;;5044363;28;20186;-61
2021/10/01 08:48:02;;;;;;;4.93;2.67;;;13.20;99.90;;;;;;5038458;28;20529;-58
2021/10/01 08:50:29;;;;;;;4.80;2.13;;;13.30;99.90;;;;;;5046690;28;20221;-62
2021/10/01 08:52:59;;;;;;;3.10;1.93;;;13.40;99.90;;;;;;5045494;28;20453;-63
2021/10/01 08:55:27;;;;;;;8.10;3.00;;;13.50;99.90;;;;;;5044893;28;20432;-63
2021/10/01 08:57:52;;;;;;;7.90;2.67;;;13.60;99.90;;;;;;5052884;28;20445;-58
2021/10/01 09:00:20;;;;;;;7.00;2.10;;;13.70;99.90;;;;;;5042531;28;20418;-63
2021/10/01 09:02:46;;;;;;;4.73;2.60;;;13.80;99.90;;;;;;5035298;28;20586;-64
2021/10/01 09:05:13;;;;;;;12.57;3.10;;;13.90;99.90;;;;;;5048889;28;20425;-64
2021/10/01 09:07:38;;;;;;;3.63;3.10;;;14.00;99.90;;;;;;5038805;28;20438;-65
2021/10/01 09:10:11;;;;;;;5.17;1.97;;;14.10;99.90;;;;;;5044790;28;20420;-64
2021/10/01 09:12:37;;;;;;;3.40;2.00;;;14.20;99.90;;;;;;5041943;28;20192;-64
2021/10/01 09:15:04;;;;;;;4.57;2.43;;;14.30;99.90;;;;;;5040486;28;20414;-65
2021/10/01 09:17:33;;;;;;;11.40;2.60;;;14.50;99.90;;;;;;5042029;28;20478;-66
2021/10/01 09:20:00;;;;;;;3.70;2.10;;;14.50;99.90;;;;;;5045627;28;20413;-66
2021/10/01 09:22:30;;;;;;;3.87;2.30;;;14.50;99.90;;;;;;5041193;28;20426;-67
2021/10/01 09:25:11;;;;;;;6.53;2.30;;;14.60;99.90;;;;;;5037201;28;20428;-59
2021/10/01 09:27:39;;;;;;;3.93;2.73;;;14.70;99.90;;;;;;5035575;28;20533;-57
2021/10/01 09:30:06;;;;;;;3.63;2.03;;;14.80;99.90;;;;;;5040451;28;20426;-58
2021/10/01 09:32:32;;;;;;;3.33;1.80;;;14.90;99.90;;;;;;5041755;28;20422;-68
2021/10/01 09:34:58;;;;;;;4.90;2.60;;;15.00;99.90;;;;;;5040545;28;20980;-58
2021/10/01 09:37:27;;;;;;;4.47;2.70;;;15.00;99.90;;;;;;5041969;28;20195;-57
2021/10/01 09:39:56;;;;;;;4.00;2.23;;;15.00;99.90;;;;;;5043008;28;20175;-54
2021/10/01 09:42:23;;;;;;;8.63;2.20;;;15.10;99.90;;;;;;5048297;28;20429;-58
2021/10/01 09:44:53;;;;;;;3.23;1.97;;;15.30;99.90;;;;;;5043914;28;20425;-58
2021/10/01 09:47:34;;;;;;;3.30;1.97;;;15.40;99.90;;;;;;5046542;28;20469;-60
2021/10/01 09:50:01;;;;;;;2.50;1.60;;;15.40;99.90;;;;;;5041496;28;20425;-66
2021/10/01 09:52:50;;;;;;;4.23;2.27;;;15.50;99.90;;;;;;5047498;28;20430;-66
2021/10/01 09:55:19;;;;;;;10.40;2.03;;;15.60;99.90;;;;;;5035169;28;20446;-66
2021/10/01 09:58:06;;;;;;;4.83;2.47;;;15.70;99.90;;;;;;5052300;28;20421;-60
2021/10/01 10:00:46;;;;;;;5.70;2.17;;;15.80;99.90;;;;;;5046334;28;20930;-61
2021/10/01 10:03:30;;;;;;;3.57;1.60;;;15.80;99.90;;;;;;5044398;28;20886;-66
2021/10/01 10:05:59;;;;;;;4.13;1.70;;;15.90;99.90;;;;;;5041563;28;20977;-68
2021/10/01 10:08:31;;;;;;;3.13;1.73;;;16.00;99.90;;;;;;5041287;28;20794;-64
2021/10/01 10:11:01;;;;;;;2.60;1.50;;;16.10;99.90;;;;;;5045616;28;20905;-60
2021/10/01 10:14:08;;;;;;;4.67;1.60;;;16.20;99.90;;;;;;5048135;28;20504;-60
2021/10/01 10:16:38;;;;;;;4.60;1.57;;;16.40;99.90;;;;;;5038060;28;20973;-61
2021/10/01 10:19:10;;;;;;;2.13;1.37;;;16.50;99.90;;;;;;5040441;28;20512;-60
2021/10/01 10:21:36;;;;;;;3.77;1.50;;;16.60;99.90;;;;;;5047606;28;20781;-65
2021/10/01 10:24:03;;;;;;;2.77;1.70;;;16.60;99.90;;;;;;5047028;28;20882;-60
2021/10/01 10:26:29;;;;;;;2.87;1.60;;;16.60;99.90;;;;;;5045223;28;20528;-64
2021/10/01 10:28:59;;;;;;;2.50;1.30;;;16.60;99.90;;;;;;5057264;28;20505;-63
2021/10/01 10:31:27;;;;;;;3.03;1.50;;;16.80;99.90;;;;;;5051912;28;20422;-62
2021/10/01 10:33:57;;;;;;;3.60;1.80;;;16.80;99.90;;;;;;5051107;28;20446;-62
2021/10/01 10:36:27;;;;;;;2.07;1.40;;;16.90;99.90;;;;;;5040872;28;20515;-62
2021/10/01 10:38:57;;;;;;;2.70;2.00;;;17.00;99.90;;;;;;5043611;28;20418;-62
2021/10/01 10:41:28;;;;;;;3.20;1.80;;;17.10;99.90;;;;;;5052816;28;20504;-62
2021/10/01 10:43:55;;;;;;;4.23;1.20;;;17.20;99.90;;;;;;5036859;28;20903;-62
2021/10/01 10:46:44;;;;;;;4.23;1.70;;;17.20;99.90;;;;;;5043160;28;20446;-62
2021/10/01 10:49:20;;;;;;;2.20;1.30;;;17.10;99.90;;;;;;5038579;28;20512;-62
2021/10/01 10:52:22;;;;;;;2.30;1.30;;;17.20;99.90;;;;;;5045215;28;20410;-62
2021/10/01 10:55:09;;;;;;;2.30;1.40;;;17.40;99.90;;;;;;5045912;28;20546;-64
2021/10/01 10:57:37;;;;;;;2.80;1.10;;;17.40;99.90;;;;;;5047667;28;20434;-62
2021/10/01 11:00:35;;;;;;;5.10;2.10;;;17.30;99.90;;;;;;5039267;28;20413;-62
2021/10/01 11:03:21;;;;;;;2.33;1.57;;;17.40;99.90;;;;;;5042681;28;20514;-61
2021/10/01 11:06:13;;;;;;;1.80;1.00;;;17.70;99.90;;;;;;5040942;28;20418;-61
2021/10/01 11:08:51;;;;;;;3.63;1.40;;;17.90;99.90;;;;;;5044663;28;20506;-63
2021/10/01 11:11:29;;;;;;;5.13;1.60;;;17.90;99.90;;;;;;5038029;28;20467;-63
2021/10/01 11:14:15;;;;;;;2.13;1.17;;;17.90;99.90;;;;;;5041096;28;20466;-61
2021/10/01 11:16:42;;;;;;;2.17;1.30;;;17.90;99.90;;;;;;5043791;28;20439;-61
2021/10/01 11:19:10;;;;;;;3.57;1.37;;;18.10;99.90;;;;;;5034264;28;20828;-62
2021/10/01 11:21:44;;;;;;;2.20;1.40;;;18.10;99.90;;;;;;5039593;28;20795;-61
2021/10/01 11:24:17;;;;;;;2.30;1.30;;;18.30;99.90;;;;;;5046290;28;20416;-61
2021/10/01 11:26:51;;;;;;;8.60;1.67;;;18.30;99.90;;;;;;5043152;28;20430;-62
2021/10/01 11:29:24;;;;;;;3.00;1.30;;;18.40;99.90;;;;;;5052787;28;20417;-59
2021/10/01 11:31:58;;;;;;;2.20;1.30;;;18.50;99.90;;;;;;5053526;28;20929;-64
2021/10/01 11:34:50;;;;;;;3.63;1.20;;;18.50;99.90;;;;;;5050755;28;20452;-61
2021/10/01 11:37:38;;;;;;;1.83;1.17;;;18.30;99.90;;;;;;5054226;28;20429;-63
2021/10/01 11:40:30;;;;;;;3.80;1.20;;;18.30;99.90;;;;;;5054213;28;20389;-61
2021/10/01 11:42:59;;;;;;;3.50;1.30;;;18.30;99.90;;;;;;5053901;28;20443;-61
2021/10/01 11:45:26;;;;;;;3.10;1.60;;;18.20;99.90;;;;;;5054208;28;20887;-62
2021/10/01 11:47:54;;;;;;;1.87;1.23;;;18.30;99.90;;;;;;5052406;28;20445;-61
2021/10/01 11:50:29;;;;;;;2.63;1.30;;;18.40;99.90;;;;;;5045793;28;20419;-62
2021/10/01 11:52:58;;;;;;;2.03;1.30;;;18.50;99.90;;;;;;5036431;28;20905;-61
2021/10/01 11:55:28;;;;;;;4.87;1.80;;;18.60;99.90;;;;;;5043195;28;20433;-62
2021/10/01 11:57:54;;;;;;;3.93;1.40;;;18.60;99.90;;;;;;5045350;28;20919;-61
2021/10/01 12:00:22;;;;;;;2.30;1.43;;;18.60;99.90;;;;;;5037824;28;20517;-64
2021/10/01 12:02:50;;;;;;;1.80;1.17;;;18.70;99.90;;;;;;5046607;28;20921;-62
2021/10/01 12:05:32;;;;;;;4.10;1.50;;;18.80;99.90;;;;;;5039855;28;20425;-63
2021/10/01 12:08:01;;;;;;;4.10;1.30;;;18.80;99.90;;;;;;5042173;28;20595;-61
2021/10/01 12:10:30;;;;;;;2.67;1.07;;;18.80;99.90;;;;;;5041013;28;20833;-62
2021/10/01 12:13:10;;;;;;;1.50;0.90;;;18.90;99.90;;;;;;5051142;28;20519;-62
2021/10/01 12:15:46;;;;;;;2.40;1.20;;;19.00;99.90;;;;;;5035649;28;20446;-63
2021/10/01 12:18:54;;;;;;;2.27;1.10;;;19.00;99.90;;;;;;5038241;28;20399;-61
2021/10/01 12:21:22;;;;;;;2.07;1.20;;;19.00;99.90;;;;;;5041550;28;20422;-61
2021/10/01 12:23:50;;;;;;;2.70;1.10;;;19.10;99.90;;;;;;5044213;28;20418;-61
2021/10/01 12:26:31;;;;;;;2.70;1.43;;;19.00;99.90;;;;;;5046960;28;20445;-63
2021/10/01 12:29:24;;;;;;;6.80;1.37;;;19.10;99.90;;;;;;5035892;28;20422;-62
2021/10/01 12:31:50;;;;;;;2.40;1.30;;;19.20;99.90;;;;;;5039556;28;20495;-61
2021/10/01 12:34:20;;;;;;;4.13;1.50;;;19.10;99.90;;;;;;5041190;28;20977;-61
2021/10/01 12:36:49;;;;;;;5.50;1.20;;;19.00;99.90;;;;;;5043502;28;20192;-62
2021/10/01 12:39:15;;;;;;;3.63;1.50;;;19.10;99.90;;;;;;5038036;28;20477;-62
2021/10/01 12:41:41;;;;;;;2.40;1.10;;;19.10;99.90;;;;;;5052346;28;20456;-65
2021/10/01 12:44:15;;;;;;;2.23;1.30;;;19.10;99.90;;;;;;5052467;28;20437;-61
2021/10/01 12:46:42;;;;;;;1.93;1.03;;;19.10;99.90;;;;;;5041213;28;20210;-61
2021/10/01 12:49:22;;;;;;;2.30;1.27;;;19.30;99.90;;;;;;5049260;28;20758;-61
2021/10/01 12:52:11;;;;;;;2.07;1.40;;;19.30;99.90;;;;;;5042042;28;20402;-61
2021/10/01 12:54:52;;;;;;;1.90;1.20;;;19.40;99.90;;;;;;5038451;28;20484;-63
2021/10/01 12:57:19;;;;;;;2.67;1.47;;;19.40;99.90;;;;;;5039874;28;20496;-61
2021/10/01 12:59:56;;;;;;;3.10;1.30;;;19.40;99.90;;;;;;5042696;28;20413;-61
2021/10/01 13:02:25;;;;;;;1.77;1.00;;;19.40;99.90;;;;;;5036163;28;20417;-64
2021/10/01 13:05:04;;;;;;;1.80;1.00;;;19.40;99.90;;;;;;5046825;28;20457;-61
2021/10/01 13:07:38;;;;;;;2.20;1.10;;;19.40;99.90;;;;;;5046751;28;20941;-61
2021/10/01 13:10:16;;;;;;;1.80;0.93;;;19.40;99.90;;;;;;5039898;28;20417;-60
2021/10/01 13:13:06;;;;;;;3.37;1.30;;;19.40;99.90;;;;;;5044963;28;20425;-61
2021/10/01 13:15:48;;;;;;;2.13;1.40;;;19.40;99.90;;;;;;5037320;28;20463;-68
2021/10/01 13:18:30;;;;;;;2.70;1.53;;;19.50;99.90;;;;;;5041978;28;20409;-66
2021/10/01 13:21:02;;;;;;;2.83;1.30;;;19.50;99.90;;;;;;5038275;28;20405;-68
2021/10/01 13:23:44;;;;;;;4.20;1.10;;;19.40;99.90;;;;;;5047791;28;20449;-64
2021/10/01 13:26:21;;;;;;;3.33;1.50;;;19.40;99.90;;;;;;5037278;28;20497;-66
2021/10/01 13:28:50;;;;;;;2.03;1.27;;;19.50;99.90;;;;;;5041039;28;20421;-66
2021/10/01 13:31:17;;;;;;;2.00;1.10;;;19.40;99.90;;;;;;5043286;28;20436;-67
2021/10/01 13:33:43;;;;;;;2.07;1.10;;;19.30;99.90;;;;;;5053190;28;20453;-59
2021/10/01 13:36:09;;;;;;;2.33;1.30;;;19.30;99.90;;;;;;5055178;28;20544;-68
2021/10/01 13:38:38;;;;;;;3.63;1.30;;;19.30;99.90;;;;;;5044516;28;20463;-66
2021/10/01 13:41:06;;;;;;;3.93;1.40;;;19.20;99.90;;;;;;5042860;28;20455;-65
2021/10/01 13:43:32;;;;;;;1.80;1.10;;;19.20;99.90;;;;;;5037063;28;20488;-60
2021/10/01 13:45:58;;;;;;;5.10;1.07;;;19.30;99.90;;;;;;5051384;28;20497;-59
2021/10/01 13:48:25;;;;;;;3.90;1.20;;;19.30;99.90;;;;;;5043429;28;20426;-67
2021/10/01 13:50:51;;;;;;;2.27;1.37;;;19.30;99.90;;;;;;5049950;28;20464;-60
2021/10/01 13:53:18;;;;;;;2.47;1.00;;;19.30;99.90;;;;;;5043985;28;20405;-58
2021/10/01 13:55:45;;;;;;;7.60;1.60;;;19.30;99.90;;;;;;5051613;28;20922;-57
2021/10/01 13:58:11;;;;;;;5.00;1.40;;;19.40;99.90;;;;;;5047753;28;20508;-67
2021/10/01 14:00:37;;;;;;;2.17;1.10;;;19.30;99.90;;;;;;5054607;28;20425;-67
2021/10/01 14:03:02;;;;;;;2.30;1.30;;;19.20;99.90;;;;;;5048793;28;20918;-67
2021/10/01 14:05:28;;;;;;;3.57;1.40;;;19.20;99.90;;;;;;5041754;28;20176;-67
2021/10/01 14:07:54;;;;;;;4.07;2.27;;;19.20;99.90;;;;;;5051532;28;20215;-65
2021/10/01 14:10:24;;;;;;;2.90;1.20;;;19.10;99.90;;;;;;5044944;28;20187;-65
2021/10/01 14:12:50;;;;;;;2.30;1.50;;;19.10;99.90;;;;;;5049594;28;20794;-67
2021/10/01 14:15:19;;;;;;;1.93;1.10;;;19.10;99.90;;;;;;5050493;28;20450;-66
2021/10/01 14:17:45;;;;;;;2.47;1.20;;;19.10;99.90;;;;;;5045119;28;20453;-66
2021/10/01 14:20:14;;;;;;;2.60;1.20;;;19.00;99.90;;;;;;5049918;28;20410;-66
2021/10/01 14:22:41;;;;;;;2.40;1.30;;;19.00;99.90;;;;;;5046356;28;20410;-66
2021/10/01 14:25:08;;;;;;;3.13;1.40;;;19.10;99.90;;;;;;5042614;28;20486;-68
2021/10/01 14:27:34;;;;;;;3.90;1.40;;;19.10;99.90;;;;;;5053171;28;20425;-65
2021/10/01 14:30:00;;;;;;;3.73;1.50;;;19.10;99.90;;;;;;5034282;28;20415;-65
2021/10/01 14:32:29;;;;;;;5.80;1.63;;;19.10;99.90;;;;;;5043086;28;20429;-66
2021/10/01 14:34:55;;;;;;;2.40;1.30;;;19.10;99.90;;;;;;5049241;28;20410;-66
2021/10/01 14:37:21;;;;;;;5.53;1.27;;;19.30;99.90;;;;;;5045114;28;20446;-60
2021/10/01 14:39:47;;;;;;;4.00;1.43;;;19.40;99.90;;;;;;5048628;28;20418;-63